createdAt,value
2022-12-23T00:00:30.597Z,44.40
2022-12-23T00:02:58.251Z,46.53
2022-12-23T00:05:25.956Z,46.60
2022-12-23T00:07:53.495Z,46.23
2022-12-23T00:10:21.389Z,47.80
2022-12-23T00:13:06.396Z,47.67
2022-12-23T00:15:35.923Z,45.97
2022-12-23T00:18:03.478Z,51.27
2022-12-23T00:20:31.175Z,49.70
2022-12-23T00:23:08.024Z,49.43
2022-12-23T00:25:44.711Z,49.07
2022-12-23T00:28:14.621Z,49.83
2022-12-23T00:30:48.201Z,48.93
2022-12-23T00:33:16.851Z,48.67
2022-12-23T00:35:45.338Z,49.00
2022-12-23T00:38:13.058Z,50.33
2022-12-23T00:40:58.158Z,48.10
2022-12-23T00:43:25.886Z,50.30
2022-12-23T00:45:55.184Z,49.33
2022-12-23T00:48:40.223Z,46.40
2022-12-23T00:51:07.852Z,48.57
2022-12-23T00:53:35.475Z,47.73
2022-12-23T00:56:03.176Z,50.07
2022-12-23T00:58:31.957Z,48.40
2022-12-23T01:01:18.419Z,47.70
2022-12-23T01:04:03.710Z,47.63
2022-12-23T01:06:31.336Z,47.87
2022-12-23T01:08:58.915Z,50.53
2022-12-23T01:11:26.505Z,50.20
2022-12-23T01:13:54.051Z,48.97
2022-12-23T01:16:23.016Z,50.03
2022-12-23T01:18:51.068Z,47.97
2022-12-23T01:21:19.091Z,50.53
2022-12-23T01:23:46.655Z,48.63
2022-12-23T01:26:14.363Z,48.97
2022-12-23T01:28:41.924Z,50.97
2022-12-23T01:31:11.953Z,51.03
2022-12-23T01:33:40.909Z,52.83
2022-12-23T01:36:10.141Z,51.10
2022-12-23T01:38:37.756Z,52.20
2022-12-23T01:41:05.605Z,53.60
2022-12-23T01:43:47.511Z,51.43
2022-12-23T01:46:15.503Z,51.60
2022-12-23T01:48:49.553Z,55.00
2022-12-23T01:51:20.554Z,50.40
2022-12-23T01:53:51.306Z,52.47
2022-12-23T01:56:24.552Z,52.50
2022-12-23T01:58:56.054Z,53.77
2022-12-23T02:01:41.595Z,52.77
2022-12-23T02:04:15.666Z,48.53
2022-12-23T02:07:02.272Z,51.70
2022-12-23T02:09:32.124Z,49.80
2022-12-23T02:12:30.251Z,53.00
2022-12-23T02:15:27.183Z,50.70
2022-12-23T02:18:11.799Z,49.20
2022-12-23T02:21:13.084Z,49.67
2022-12-23T02:24:19.640Z,49.80
2022-12-23T02:27:16.164Z,49.17
2022-12-23T02:30:26.317Z,48.53
2022-12-23T02:33:30.820Z,44.67
2022-12-23T02:36:15.834Z,46.60
2022-12-23T02:38:49.203Z,47.03
2022-12-23T02:41:23.972Z,46.10
2022-12-23T02:43:58.085Z,44.10
2022-12-23T02:46:33.077Z,49.80
2022-12-23T02:49:07.530Z,48.17
2022-12-23T02:51:38.218Z,48.53
2022-12-23T02:54:10.060Z,49.50
2022-12-23T02:56:40.858Z,51.13
2022-12-23T02:59:13.565Z,48.60
2022-12-23T03:01:43.019Z,49.43
2022-12-23T03:04:12.235Z,48.53
2022-12-23T03:06:42.813Z,49.47
2022-12-23T03:09:16.740Z,47.83
2022-12-23T03:11:55.227Z,47.07
2022-12-23T03:14:44.656Z,47.03
2022-12-23T03:17:26.624Z,50.50
2022-12-23T03:20:04.462Z,50.97
2022-12-23T03:22:37.004Z,50.93
2022-12-23T03:25:11.707Z,50.07
2022-12-23T03:27:44.058Z,52.47
2022-12-23T03:30:14.823Z,52.50
2022-12-23T03:32:50.367Z,48.77
2022-12-23T03:35:25.289Z,48.20
2022-12-23T03:37:55.589Z,49.37
2022-12-23T03:40:26.044Z,49.77
2022-12-23T03:42:58.586Z,52.43
2022-12-23T03:45:39.840Z,50.47
2022-12-23T03:48:13.351Z,48.77
2022-12-23T03:50:44.186Z,49.83
2022-12-23T03:53:15.565Z,50.10
2022-12-23T03:55:49.426Z,48.70
2022-12-23T03:58:27.111Z,50.40
2022-12-23T04:01:00.797Z,51.37
2022-12-23T04:03:36.640Z,46.40
2022-12-23T04:06:09.692Z,49.20
2022-12-23T04:08:39.812Z,51.90
2022-12-23T04:11:08.011Z,49.60
2022-12-23T04:13:35.884Z,56.70
2022-12-23T04:16:04.645Z,51.43
2022-12-23T04:18:32.417Z,54.93
2022-12-23T04:21:00.278Z,54.97
2022-12-23T04:23:29.220Z,60.67
2022-12-23T04:25:57.391Z,51.43
2022-12-23T04:28:25.126Z,51.53
2022-12-23T04:30:52.745Z,51.77
2022-12-23T04:33:20.349Z,54.53
2022-12-23T04:35:48.109Z,58.33
2022-12-23T04:38:15.916Z,53.87
2022-12-23T04:40:48.182Z,54.77
2022-12-23T04:43:16.309Z,64.77
2022-12-23T04:45:44.198Z,56.80
2022-12-23T04:48:11.775Z,57.77
2022-12-23T04:50:40.521Z,52.70
2022-12-23T04:53:08.155Z,59.20
2022-12-23T04:55:35.933Z,57.10
2022-12-23T04:58:05.238Z,48.10
2022-12-23T05:00:39.159Z,51.67
2022-12-23T05:03:07.629Z,52.27
2022-12-23T05:05:35.371Z,51.53
2022-12-23T05:08:05.265Z,48.50
2022-12-23T05:10:32.985Z,46.30
2022-12-23T05:13:00.775Z,49.90
2022-12-23T05:15:29.959Z,45.73
2022-12-23T05:17:57.585Z,48.93
2022-12-23T05:20:25.167Z,45.73
2022-12-23T05:22:52.742Z,47.63
2022-12-23T05:25:20.352Z,48.73
2022-12-23T05:27:47.890Z,52.17
2022-12-23T05:30:15.651Z,51.23
2022-12-23T05:32:45.295Z,54.83
2022-12-23T05:35:12.990Z,49.90
2022-12-23T05:37:40.578Z,48.97
2022-12-23T05:40:09.571Z,56.20
2022-12-23T05:42:37.460Z,55.83
2022-12-23T05:45:05.565Z,53.97
2022-12-23T05:47:33.450Z,51.80
2022-12-23T05:50:03.167Z,44.47
2022-12-23T05:52:30.958Z,49.90
2022-12-23T05:54:58.562Z,46.17
2022-12-23T05:57:26.575Z,47.37
2022-12-23T05:59:54.471Z,44.33
2022-12-23T06:02:22.550Z,44.00
2022-12-23T06:04:50.426Z,42.93
2022-12-23T06:07:19.448Z,46.17
2022-12-23T06:09:46.966Z,53.47
2022-12-23T06:12:14.561Z,52.80
2022-12-23T06:14:42.121Z,44.50
2022-12-23T06:17:09.724Z,49.40
2022-12-23T06:19:37.966Z,41.30
2022-12-23T06:22:05.596Z,42.47
2022-12-23T06:24:34.580Z,51.60
2022-12-23T06:27:02.271Z,44.93
2022-12-23T06:29:29.893Z,44.27
2022-12-23T06:31:57.672Z,46.97
2022-12-23T06:34:25.297Z,41.10
2022-12-23T06:36:53.169Z,40.20
2022-12-23T06:39:21.179Z,40.67
2022-12-23T06:41:50.099Z,37.40
2022-12-23T06:44:18.048Z,37.80
2022-12-23T06:46:45.658Z,39.70
2022-12-23T06:49:13.953Z,37.67
2022-12-23T06:51:42.218Z,36.03
2022-12-23T06:54:11.321Z,35.80
2022-12-23T06:56:38.954Z,36.13
2022-12-23T06:59:08.010Z,33.77
2022-12-23T07:01:35.716Z,34.77
2022-12-23T07:04:03.647Z,34.13
2022-12-23T07:06:31.272Z,36.47
2022-12-23T07:08:59.541Z,34.50
2022-12-23T07:11:27.140Z,36.97
2022-12-23T07:13:54.744Z,36.67
2022-12-23T07:16:23.830Z,33.80
2022-12-23T07:18:51.416Z,34.70
2022-12-23T07:21:28.266Z,35.20
2022-12-23T07:23:56.446Z,33.20
2022-12-23T07:26:24.532Z,33.50
2022-12-23T07:28:52.425Z,31.23
2022-12-23T07:31:20.168Z,31.60
2022-12-23T07:33:49.153Z,30.13
2022-12-23T07:36:16.903Z,28.90
2022-12-23T07:38:44.936Z,28.03
2022-12-23T07:41:12.629Z,30.13
2022-12-23T07:43:40.209Z,28.13
2022-12-23T07:46:08.669Z,28.97
2022-12-23T07:48:36.633Z,28.80
2022-12-23T07:51:06.577Z,28.77
2022-12-23T07:53:34.615Z,29.00
2022-12-23T07:56:02.233Z,28.57
2022-12-23T07:58:29.813Z,29.37
2022-12-23T08:01:02.201Z,28.80
2022-12-23T08:03:30.548Z,29.53
2022-12-23T08:06:03.071Z,29.67
2022-12-23T08:08:32.693Z,29.20
2022-12-23T08:11:01.747Z,29.10
2022-12-23T08:13:29.545Z,27.50
2022-12-23T08:15:57.958Z,28.60
2022-12-23T08:18:26.689Z,28.60
2022-12-23T08:20:55.561Z,29.30
2022-12-23T08:23:25.010Z,29.93
2022-12-23T08:26:01.762Z,29.13
2022-12-23T08:28:29.994Z,28.10
2022-12-23T08:31:03.732Z,29.73
2022-12-23T08:33:31.665Z,28.97
2022-12-23T08:35:59.274Z,30.03
2022-12-23T08:38:26.916Z,29.10
2022-12-23T08:40:54.645Z,29.60
2022-12-23T08:43:24.122Z,30.67
2022-12-23T08:45:52.035Z,28.90
2022-12-23T08:48:19.739Z,29.50
2022-12-23T08:50:48.647Z,29.30
2022-12-23T08:53:16.398Z,28.87
2022-12-23T08:55:45.856Z,31.40
2022-12-23T08:58:15.049Z,29.60
2022-12-23T09:00:44.144Z,31.20
2022-12-23T09:03:11.855Z,30.67
2022-12-23T09:05:43.198Z,29.40
2022-12-23T09:08:10.996Z,30.47
2022-12-23T09:10:42.963Z,30.07
2022-12-23T09:13:17.926Z,30.57
2022-12-23T09:15:51.858Z,29.40
2022-12-23T09:18:19.490Z,32.60
2022-12-23T09:20:48.156Z,33.10
2022-12-23T09:23:15.709Z,36.00
2022-12-23T09:25:43.275Z,32.60
2022-12-23T09:28:11.066Z,31.33
2022-12-23T09:30:38.645Z,35.13
2022-12-23T09:33:07.597Z,31.90
2022-12-23T09:35:35.364Z,31.90
2022-12-23T09:38:03.000Z,30.20
2022-12-23T09:40:33.337Z,28.63
2022-12-23T09:43:13.919Z,26.30
2022-12-23T09:45:56.768Z,30.07
2022-12-23T09:48:31.768Z,28.77
2022-12-23T09:50:59.960Z,27.33
2022-12-23T09:53:41.269Z,29.53
2022-12-23T09:56:17.226Z,29.20
2022-12-23T09:58:51.606Z,27.00
2022-12-23T10:01:26.197Z,27.50
2022-12-23T10:04:21.605Z,28.97
2022-12-23T10:06:56.337Z,27.30
2022-12-23T10:09:28.610Z,28.60
2022-12-23T10:11:57.061Z,28.63
2022-12-23T10:14:29.849Z,28.77
2022-12-23T10:17:01.394Z,29.13
2022-12-23T10:19:41.516Z,28.97
2022-12-23T10:22:16.678Z,28.50
2022-12-23T10:24:47.118Z,28.93
2022-12-23T10:27:24.308Z,29.67
2022-12-23T10:29:52.092Z,29.30
2022-12-23T10:32:31.294Z,29.93
2022-12-23T10:35:10.821Z,29.17
2022-12-23T10:37:42.616Z,29.30
2022-12-23T10:40:18.272Z,28.50
2022-12-23T10:42:58.464Z,28.10
2022-12-23T10:45:43.431Z,28.47
2022-12-23T10:48:25.425Z,28.90
2022-12-23T10:51:01.027Z,29.60
2022-12-23T10:53:36.995Z,29.13
2022-12-23T10:56:06.090Z,28.50
2022-12-23T10:58:37.683Z,29.73
2022-12-23T11:01:16.145Z,29.63
2022-12-23T11:04:02.674Z,29.30
2022-12-23T11:06:37.488Z,29.63
2022-12-23T11:09:06.235Z,27.83
2022-12-23T11:11:57.567Z,28.67
2022-12-23T11:14:34.224Z,28.07
2022-12-23T11:17:03.006Z,28.20
2022-12-23T11:19:30.787Z,28.13
2022-12-23T11:22:01.846Z,27.87
2022-12-23T11:24:35.350Z,27.50
2022-12-23T11:27:08.631Z,28.17
2022-12-23T11:29:38.006Z,27.70
2022-12-23T11:32:17.779Z,27.77
2022-12-23T11:34:47.660Z,28.30
2022-12-23T11:37:30.918Z,27.60
2022-12-23T11:39:58.548Z,28.27
2022-12-23T11:42:31.151Z,27.13
2022-12-23T11:45:00.893Z,28.70
2022-12-23T11:47:34.057Z,29.00
2022-12-23T11:50:03.716Z,27.73
2022-12-23T11:52:34.327Z,27.23
2022-12-23T11:55:03.963Z,28.43
2022-12-23T11:57:38.991Z,28.00
2022-12-23T12:00:17.706Z,28.20
2022-12-23T12:02:48.296Z,29.40
2022-12-23T12:05:22.616Z,31.70
2022-12-23T12:07:53.055Z,30.50
2022-12-23T12:10:26.128Z,26.80
2022-12-23T12:12:57.946Z,28.97
2022-12-23T12:15:34.963Z,27.83
2022-12-23T12:18:07.233Z,27.53
2022-12-23T12:20:38.296Z,25.43
2022-12-23T12:23:13.823Z,25.90
2022-12-23T12:25:45.778Z,25.20
2022-12-23T12:28:19.834Z,26.70
2022-12-23T12:30:53.145Z,25.73
2022-12-23T12:33:24.999Z,24.90
2022-12-23T12:36:04.940Z,26.50
2022-12-23T12:38:37.151Z,26.77
2022-12-23T12:41:15.155Z,25.63
2022-12-23T12:43:48.288Z,26.40
2022-12-23T12:46:27.816Z,26.73
2022-12-23T12:49:00.718Z,25.50
2022-12-23T12:51:34.687Z,26.90
2022-12-23T12:54:11.635Z,26.10
2022-12-23T12:56:44.798Z,25.00
2022-12-23T12:59:17.780Z,26.07
2022-12-23T13:01:57.779Z,25.00
2022-12-23T13:04:47.856Z,25.70
2022-12-23T13:07:23.392Z,26.07
2022-12-23T13:10:00.250Z,25.70
2022-12-23T13:12:43.148Z,26.30
2022-12-23T13:15:19.613Z,25.07
2022-12-23T13:17:52.986Z,24.93
2022-12-23T13:20:35.028Z,26.20
2022-12-23T13:23:41.860Z,26.30
2022-12-23T13:26:06.505Z,24.77
2022-12-23T13:28:44.984Z,25.00
2022-12-23T13:31:19.283Z,25.00
2022-12-23T13:33:55.151Z,25.87
2022-12-23T13:36:38.256Z,26.00
2022-12-23T13:39:24.274Z,26.60
2022-12-23T13:42:03.007Z,26.87
2022-12-23T13:44:34.828Z,27.73
2022-12-23T13:47:12.553Z,27.67
2022-12-23T13:49:53.892Z,27.90
2022-12-23T13:52:35.095Z,27.83
2022-12-23T13:55:13.192Z,27.53
2022-12-23T13:57:53.118Z,26.90
2022-12-23T14:00:27.748Z,27.47
2022-12-23T14:03:17.852Z,28.03
2022-12-23T14:05:47.666Z,29.23
2022-12-23T14:08:31.310Z,28.57
2022-12-23T14:11:03.009Z,27.67
2022-12-23T14:13:40.122Z,28.00
2022-12-23T14:16:33.620Z,28.07
2022-12-23T14:19:34.415Z,28.90
2022-12-23T14:22:14.156Z,28.37
2022-12-23T14:25:06.991Z,27.60
2022-12-23T14:27:46.542Z,28.60
2022-12-23T14:30:18.371Z,31.10
2022-12-23T14:32:49.672Z,28.40
2022-12-23T14:35:23.142Z,30.20
2022-12-23T14:38:27.292Z,30.33
2022-12-23T14:41:01.121Z,31.03
2022-12-23T14:43:34.708Z,31.20
2022-12-23T14:46:06.022Z,32.30
2022-12-23T14:49:09.629Z,30.90
2022-12-23T14:51:41.190Z,31.10
2022-12-23T14:54:15.107Z,30.80
2022-12-23T14:56:58.327Z,30.10
2022-12-23T14:59:35.902Z,29.80
2022-12-23T15:02:17.821Z,31.20
2022-12-23T15:04:48.858Z,31.63
2022-12-23T15:07:25.467Z,31.57
2022-12-23T15:10:00.727Z,30.93
2022-12-23T15:12:33.310Z,30.83
2022-12-23T15:15:04.474Z,30.97
2022-12-23T15:17:35.963Z,30.23
2022-12-23T15:20:12.974Z,30.60
2022-12-23T15:22:42.430Z,31.00
2022-12-23T15:25:20.854Z,37.40
2022-12-23T15:27:48.939Z,38.07
2022-12-23T15:30:18.163Z,37.63
2022-12-23T15:32:49.456Z,35.73
2022-12-23T15:35:23.563Z,34.43
2022-12-23T15:37:51.862Z,35.90
2022-12-23T15:40:27.920Z,34.13
2022-12-23T15:42:56.353Z,35.17
2022-12-23T15:45:33.071Z,35.43
2022-12-23T15:48:02.848Z,34.80
2022-12-23T15:50:31.335Z,33.77
2022-12-23T15:53:06.416Z,32.20
2022-12-23T15:55:37.430Z,40.20
2022-12-23T15:58:05.677Z,38.33
2022-12-23T16:00:39.929Z,37.90
2022-12-23T16:03:25.968Z,39.17
2022-12-23T16:05:54.073Z,41.70
2022-12-23T16:08:30.187Z,38.20
2022-12-23T16:11:05.501Z,35.67
2022-12-23T16:13:33.907Z,34.50
2022-12-23T16:16:30.324Z,32.87
2022-12-23T16:18:59.318Z,33.93
2022-12-23T16:21:31.561Z,30.43
2022-12-23T16:24:01.075Z,30.77
2022-12-23T16:26:28.966Z,31.27
2022-12-23T16:29:00.216Z,31.07
2022-12-23T16:31:28.448Z,30.53
2022-12-23T16:33:59.504Z,31.63
2022-12-23T16:36:35.705Z,33.23
2022-12-23T16:39:15.911Z,36.43
2022-12-23T16:41:43.594Z,34.13
2022-12-23T16:44:11.504Z,35.33
2022-12-23T16:46:43.490Z,36.37
2022-12-23T16:49:16.423Z,36.50
2022-12-23T16:51:44.449Z,38.50
2022-12-23T16:54:15.535Z,38.80
2022-12-23T16:56:44.054Z,36.40
2022-12-23T16:59:11.670Z,34.30
2022-12-23T17:01:42.159Z,35.33
2022-12-23T17:04:09.986Z,35.23
2022-12-23T17:06:40.698Z,34.93
2022-12-23T17:09:11.258Z,33.67
2022-12-23T17:11:42.485Z,34.00
2022-12-23T17:14:16.641Z,34.93
2022-12-23T17:16:45.131Z,34.23
2022-12-23T17:19:12.853Z,34.67
2022-12-23T17:21:44.015Z,31.80
2022-12-23T17:24:15.049Z,31.40
2022-12-23T17:26:42.733Z,33.10
2022-12-23T17:29:12.631Z,33.70
2022-12-23T17:31:40.839Z,33.77
2022-12-23T17:34:11.640Z,34.30
2022-12-23T17:36:43.058Z,34.60
2022-12-23T17:39:16.929Z,34.87
2022-12-23T17:41:44.668Z,34.40
2022-12-23T17:44:16.053Z,37.43
2022-12-23T17:46:43.752Z,39.47
2022-12-23T17:49:11.381Z,37.93
2022-12-23T17:51:40.498Z,41.50
2022-12-23T17:54:08.231Z,42.27
2022-12-23T17:56:37.854Z,40.10
2022-12-23T17:59:05.478Z,37.97
2022-12-23T18:01:33.244Z,37.13
2022-12-23T18:04:01.287Z,36.60
2022-12-23T18:06:30.581Z,34.37
2022-12-23T18:08:58.409Z,33.57
2022-12-23T18:11:33.508Z,35.00
2022-12-23T18:14:03.665Z,34.80
2022-12-23T18:16:31.946Z,31.93
2022-12-23T18:18:59.593Z,29.73
2022-12-23T18:21:28.954Z,30.13
2022-12-23T18:23:59.613Z,30.70
2022-12-23T18:26:27.939Z,32.80
2022-12-23T18:28:55.603Z,32.17
2022-12-23T18:31:27.291Z,33.37
2022-12-23T18:33:55.097Z,34.10
2022-12-23T18:36:24.958Z,68.83
2022-12-23T18:38:53.546Z,34.20
2022-12-23T18:41:21.979Z,39.33
2022-12-23T18:43:49.704Z,35.50
2022-12-23T18:46:17.950Z,35.97
2022-12-23T18:48:47.185Z,36.10
2022-12-23T18:51:15.320Z,35.10
2022-12-23T18:53:43.583Z,36.30
2022-12-23T18:56:13.762Z,39.33
2022-12-23T18:58:41.367Z,36.10
2022-12-23T19:01:12.321Z,40.83
2022-12-23T19:03:40.042Z,38.17
2022-12-23T19:06:10.915Z,47.77
2022-12-23T19:08:39.071Z,57.27
2022-12-23T19:11:11.688Z,44.47
2022-12-23T19:13:39.436Z,36.33
2022-12-23T19:16:07.304Z,35.70
2022-12-23T19:18:34.926Z,38.60
2022-12-23T19:21:05.261Z,36.20
2022-12-23T19:23:34.231Z,39.00
2022-12-23T19:26:02.420Z,38.27
2022-12-23T19:28:30.048Z,53.30
2022-12-23T19:30:57.716Z,43.70
2022-12-23T19:33:25.916Z,49.70
2022-12-23T19:35:53.547Z,38.27
2022-12-23T19:38:21.162Z,44.37
2022-12-23T19:40:58.891Z,36.90
2022-12-23T19:43:26.564Z,40.37
2022-12-23T19:45:58.240Z,36.60
2022-12-23T19:48:25.904Z,38.97
2022-12-23T19:50:58.087Z,35.60
2022-12-23T19:53:25.845Z,37.30
2022-12-23T19:55:59.509Z,36.87
2022-12-23T19:58:27.468Z,36.20
2022-12-23T20:01:06.600Z,39.10
2022-12-23T20:03:34.277Z,47.07
2022-12-23T20:06:02.347Z,50.80
2022-12-23T20:08:29.940Z,42.80
2022-12-23T20:11:09.590Z,38.60
2022-12-23T20:13:37.556Z,39.93
2022-12-23T20:16:06.663Z,39.70
2022-12-23T20:18:34.459Z,40.93
2022-12-23T20:21:02.495Z,45.07
2022-12-23T20:23:31.819Z,41.80
2022-12-23T20:25:59.586Z,38.50
2022-12-23T20:28:29.777Z,35.40
2022-12-23T20:31:02.046Z,35.80
2022-12-23T20:33:29.635Z,34.20
2022-12-23T20:35:57.271Z,33.30
2022-12-23T20:38:24.925Z,33.60
2022-12-23T20:40:52.538Z,34.00
2022-12-23T20:43:20.546Z,31.67
2022-12-23T20:45:51.927Z,33.20
2022-12-23T20:48:21.575Z,32.07
2022-12-23T20:50:49.453Z,31.67
2022-12-23T20:53:17.591Z,32.93
2022-12-23T20:55:45.190Z,32.70
2022-12-23T20:58:26.764Z,34.40
2022-12-23T21:00:55.750Z,33.93
2022-12-23T21:03:23.443Z,34.20
2022-12-23T21:05:51.161Z,37.70
2022-12-23T21:08:18.780Z,40.40
2022-12-23T21:10:53.413Z,39.20
2022-12-23T21:13:21.441Z,32.63
2022-12-23T21:15:49.130Z,32.27
2022-12-23T21:18:18.271Z,35.60
2022-12-23T21:20:45.874Z,34.87
2022-12-23T21:23:13.531Z,39.47
2022-12-23T21:25:41.108Z,41.13
2022-12-23T21:28:08.673Z,40.80
2022-12-23T21:30:36.275Z,41.57
2022-12-23T21:33:03.831Z,41.03
2022-12-23T21:35:32.791Z,39.97
2022-12-23T21:38:00.414Z,41.67
2022-12-23T21:40:28.067Z,33.73
2022-12-23T21:42:55.682Z,32.87
2022-12-23T21:45:23.268Z,41.60
2022-12-23T21:47:50.969Z,34.50
2022-12-23T21:50:18.653Z,35.73
2022-12-23T21:52:47.596Z,34.97
2022-12-23T21:55:16.084Z,33.50
2022-12-23T21:57:43.867Z,33.13
2022-12-23T22:00:12.407Z,35.03
2022-12-23T22:02:40.124Z,32.80
2022-12-23T22:05:08.879Z,43.10
2022-12-23T22:07:36.464Z,35.83
2022-12-23T22:10:06.274Z,37.17
2022-12-23T22:12:33.877Z,37.00
2022-12-23T22:15:05.062Z,35.83
2022-12-23T22:17:37.504Z,50.83
2022-12-23T22:20:05.827Z,40.20
2022-12-23T22:22:33.381Z,37.30
2022-12-23T22:25:00.968Z,35.33
2022-12-23T22:27:29.844Z,36.07
2022-12-23T22:29:57.435Z,35.30
2022-12-23T22:32:24.973Z,34.27
2022-12-23T22:34:52.507Z,34.10
2022-12-23T22:37:20.082Z,34.00
2022-12-23T22:39:47.713Z,33.90
2022-12-23T22:42:15.318Z,34.67
2022-12-23T22:44:44.225Z,35.90
2022-12-23T22:47:11.836Z,34.27
2022-12-23T22:49:39.453Z,35.33
2022-12-23T22:52:07.023Z,33.73
2022-12-23T22:54:34.595Z,35.10
2022-12-23T22:57:02.128Z,34.77
2022-12-23T22:59:29.664Z,32.97
2022-12-23T23:01:58.687Z,33.57
2022-12-23T23:04:26.402Z,33.97
2022-12-23T23:06:54.011Z,32.80
2022-12-23T23:09:23.042Z,32.70
2022-12-23T23:11:51.181Z,31.77
2022-12-23T23:14:19.567Z,32.03
2022-12-23T23:16:47.395Z,32.43
2022-12-23T23:19:20.110Z,31.10
2022-12-23T23:21:48.796Z,30.60
2022-12-23T23:24:16.420Z,31.27
2022-12-23T23:26:43.973Z,29.93
2022-12-23T23:29:11.543Z,31.57
2022-12-23T23:31:42.425Z,29.97
2022-12-23T23:34:11.115Z,30.10
2022-12-23T23:36:40.428Z,30.93
2022-12-23T23:39:08.249Z,29.80
2022-12-23T23:41:35.965Z,31.37
2022-12-23T23:44:03.586Z,31.10
2022-12-23T23:46:31.720Z,28.90
2022-12-23T23:48:59.468Z,30.37
2022-12-23T23:51:27.226Z,30.57
2022-12-23T23:53:56.193Z,33.03
2022-12-23T23:56:25.817Z,30.40
2022-12-23T23:58:54.774Z,31.80
